createdAt,value
2019-04-16T00:02:19.382Z,6.69
2019-04-16T00:05:11.621Z,6.66
2019-04-16T00:07:57.545Z,6.62
2019-04-16T00:10:45.933Z,6.59
2019-04-16T00:13:39.668Z,6.56
2019-04-16T00:16:12.685Z,6.51
2019-04-16T00:18:56.373Z,6.52
2019-04-16T00:21:32.168Z,6.45
2019-04-16T00:24:18.141Z,6.40
2019-04-16T00:26:45.980Z,6.40
2019-04-16T00:29:16.430Z,6.35
2019-04-16T00:32:07.817Z,6.25
2019-04-16T00:34:35.007Z,6.22
2019-04-16T00:37:05.528Z,6.23
2019-04-16T00:39:35.996Z,6.15
2019-04-16T00:42:06.422Z,6.10
2019-04-16T00:44:36.855Z,6.13
2019-04-16T00:47:07.336Z,6.11
2019-04-16T00:49:38.166Z,6.04
2019-04-16T00:52:08.674Z,5.98
2019-04-16T00:54:42.140Z,5.98
2019-04-16T00:57:11.283Z,5.96
2019-04-16T00:59:41.736Z,5.93
2019-04-16T01:02:12.576Z,5.90
2019-04-16T01:04:48.796Z,5.92
2019-04-16T01:07:19.273Z,5.89
2019-04-16T01:09:49.772Z,5.81
2019-04-16T01:12:20.539Z,5.76
2019-04-16T01:14:51.012Z,5.71
2019-04-16T01:17:21.482Z,5.68
2019-04-16T01:19:51.904Z,5.62
2019-04-16T01:22:22.387Z,5.63
2019-04-16T01:24:52.818Z,5.64
2019-04-16T01:27:32.296Z,5.63
2019-04-16T01:30:05.962Z,5.58
2019-04-16T01:33:06.546Z,5.55
2019-04-16T01:35:53.697Z,5.61
2019-04-16T01:38:29.694Z,5.55
2019-04-16T01:41:05.316Z,5.48
2019-04-16T01:43:35.875Z,5.45
2019-04-16T01:46:06.301Z,5.41
2019-04-16T01:48:38.975Z,5.39
2019-04-16T01:51:08.927Z,5.43
2019-04-16T01:53:39.354Z,5.36
2019-04-16T01:56:09.781Z,5.38
2019-04-16T01:58:40.264Z,5.33
2019-04-16T02:01:12.305Z,5.20
2019-04-16T02:03:42.860Z,5.10
2019-04-16T02:06:13.327Z,5.10
2019-04-16T02:08:43.761Z,5.13
2019-04-16T02:11:14.189Z,5.11
2019-04-16T02:13:46.172Z,5.09
2019-04-16T02:16:16.960Z,5.02
2019-04-16T02:18:47.744Z,4.96
2019-04-16T02:21:18.250Z,4.91
2019-04-16T02:23:48.826Z,4.86
2019-04-16T02:26:20.559Z,4.81
2019-04-16T02:28:52.157Z,4.73
2019-04-16T02:31:30.498Z,4.67
2019-04-16T02:34:01.024Z,4.59
2019-04-16T02:36:31.425Z,4.48
2019-04-16T02:39:02.104Z,4.40
2019-04-16T02:41:33.014Z,4.40
2019-04-16T02:44:03.439Z,4.30
2019-04-16T02:46:33.895Z,4.30
2019-04-16T02:49:04.545Z,4.26
2019-04-16T02:51:53.900Z,4.29
2019-04-16T02:54:34.283Z,4.27
2019-04-16T02:57:32.950Z,4.27
2019-04-16T03:00:08.508Z,4.19
2019-04-16T03:02:47.748Z,4.14
2019-04-16T03:05:38.935Z,4.18
2019-04-16T03:08:09.675Z,4.17
2019-04-16T03:10:41.861Z,4.22
2019-04-16T03:13:12.327Z,4.15
2019-04-16T03:16:07.749Z,4.11
2019-04-16T03:18:46.905Z,4.19
2019-04-16T03:21:15.312Z,4.11
2019-04-16T03:23:46.123Z,4.20
2019-04-16T03:26:18.093Z,4.11
2019-04-16T03:28:48.870Z,4.13
2019-04-16T03:31:23.216Z,4.11
2019-04-16T03:33:51.831Z,4.11
2019-04-16T03:36:22.286Z,4.12
2019-04-16T03:38:53.104Z,4.15
2019-04-16T03:41:25.067Z,4.08
2019-04-16T03:43:55.873Z,4.11
2019-04-16T03:46:27.129Z,4.16
2019-04-16T03:48:57.600Z,4.22
2019-04-16T03:51:28.030Z,4.20
2019-04-16T03:53:58.455Z,4.16
2019-04-16T03:56:30.644Z,4.16
2019-04-16T03:59:01.236Z,4.03
2019-04-16T04:01:31.734Z,3.85
2019-04-16T04:04:02.215Z,3.64
2019-04-16T04:06:32.656Z,3.66
2019-04-16T04:09:04.249Z,3.65
2019-04-16T04:11:35.191Z,3.62
2019-04-16T04:14:05.968Z,3.70
2019-04-16T04:16:36.382Z,3.72
2019-04-16T04:19:06.866Z,3.75
2019-04-16T04:21:37.310Z,3.63
2019-04-16T04:24:08.413Z,3.58
2019-04-16T04:26:42.240Z,3.50
2019-04-16T04:29:11.027Z,3.45
2019-04-16T04:31:41.480Z,3.32
2019-04-16T04:34:15.371Z,3.33
2019-04-16T04:36:44.979Z,3.26
2019-04-16T04:39:16.024Z,3.10
2019-04-16T04:41:46.679Z,3.01
2019-04-16T04:44:17.116Z,2.94
2019-04-16T04:46:47.555Z,3.00
2019-04-16T04:49:18.047Z,3.05
2019-04-16T04:51:48.484Z,3.04
2019-04-16T04:54:21.943Z,3.07
2019-04-16T04:56:51.107Z,3.09
2019-04-16T04:59:21.554Z,3.06
2019-04-16T05:01:51.998Z,3.20
2019-04-16T05:04:49.571Z,3.15
2019-04-16T05:07:20.618Z,3.22
2019-04-16T05:09:51.049Z,3.33
2019-04-16T05:12:22.243Z,3.42
2019-04-16T05:14:58.494Z,3.44
2019-04-16T05:17:30.254Z,3.61
2019-04-16T05:20:00.702Z,3.63
2019-04-16T05:22:32.950Z,3.68
2019-04-16T05:25:03.620Z,3.74
2019-04-16T05:27:34.069Z,3.77
2019-04-16T05:30:05.377Z,3.87
2019-04-16T05:32:36.734Z,3.93
2019-04-16T05:35:10.291Z,4.00
2019-04-16T05:37:40.105Z,3.95
2019-04-16T05:40:11.445Z,3.96
2019-04-16T05:42:41.882Z,4.01
2019-04-16T05:45:12.580Z,4.11
2019-04-16T05:47:43.063Z,4.25
2019-04-16T05:50:14.094Z,4.31
2019-04-16T05:52:45.242Z,4.39
2019-04-16T05:55:22.818Z,4.47
2019-04-16T05:57:57.947Z,4.59
2019-04-16T06:00:41.771Z,4.60
2019-04-16T06:03:13.869Z,4.62
2019-04-16T06:05:44.329Z,4.66
2019-04-16T06:08:14.979Z,4.79
2019-04-16T06:10:49.777Z,4.89
2019-04-16T06:13:28.187Z,4.99
2019-04-16T06:16:16.710Z,5.13
2019-04-16T06:19:11.443Z,5.18
2019-04-16T06:21:59.057Z,5.20
2019-04-16T06:24:40.060Z,5.39
2019-04-16T06:27:34.881Z,5.41
2019-04-16T06:30:24.663Z,5.43
2019-04-16T06:33:02.513Z,5.44
2019-04-16T06:35:43.880Z,5.49
2019-04-16T06:38:17.849Z,5.58
2019-04-16T06:41:03.377Z,5.73
2019-04-16T06:43:39.026Z,5.87
2019-04-16T06:46:40.623Z,6.02
2019-04-16T06:49:39.580Z,6.14
2019-04-16T06:52:35.800Z,6.36
2019-04-16T06:55:18.648Z,6.53
2019-04-16T06:58:12.542Z,6.57
2019-04-16T07:00:54.121Z,6.63
2019-04-16T07:03:44.258Z,6.73
2019-04-16T07:06:36.024Z,6.81
2019-04-16T07:09:40.889Z,6.96
2019-04-16T07:12:04.210Z,7.02
2019-04-16T07:14:36.187Z,7.00
2019-04-16T07:17:07.185Z,7.04
2019-04-16T07:19:39.406Z,7.14
2019-04-16T07:22:09.796Z,7.28
2019-04-16T07:24:40.361Z,7.49
2019-04-16T07:27:10.865Z,7.63
2019-04-16T07:29:46.867Z,7.74
2019-04-16T07:32:35.563Z,7.82
2019-04-16T07:35:27.132Z,7.97
2019-04-16T07:38:35.440Z,8.00
2019-04-16T07:41:31.290Z,7.92
2019-04-16T07:44:11.451Z,8.04
2019-04-16T07:46:53.378Z,8.24
2019-04-16T07:49:42.736Z,8.54
2019-04-16T07:52:27.201Z,8.61
2019-04-16T07:55:27.504Z,8.92
2019-04-16T07:57:58.165Z,9.07
2019-04-16T08:00:29.071Z,9.20
2019-04-16T08:03:00.073Z,9.28
2019-04-16T08:05:30.955Z,9.43
2019-04-16T08:08:01.879Z,9.54
2019-04-16T08:10:32.330Z,9.65
2019-04-16T08:13:09.597Z,9.72
2019-04-16T08:15:40.144Z,9.91
2019-04-16T08:18:10.583Z,10.12
2019-04-16T08:20:41.070Z,10.18
2019-04-16T08:23:28.548Z,10.27
2019-04-16T08:26:03.624Z,10.38
2019-04-16T08:28:32.150Z,10.47
2019-04-16T08:31:03.935Z,10.53
2019-04-16T08:33:34.463Z,10.68
2019-04-16T08:36:05.239Z,10.90
2019-04-16T08:38:35.814Z,10.94
2019-04-16T08:41:06.253Z,10.99
2019-04-16T08:43:36.692Z,11.11
2019-04-16T08:46:11.041Z,11.21
2019-04-16T08:48:39.986Z,11.28
2019-04-16T08:51:10.428Z,11.44
2019-04-16T08:53:43.727Z,11.32
2019-04-16T08:56:13.153Z,11.42
2019-04-16T08:58:43.598Z,11.47
2019-04-16T09:01:20.108Z,11.55
2019-04-16T09:03:50.161Z,11.57
2019-04-16T09:06:20.599Z,11.65
2019-04-16T09:09:24.339Z,11.75
2019-04-16T09:11:57.100Z,11.95
2019-04-16T09:14:29.908Z,12.24
2019-04-16T09:17:25.455Z,12.49
2019-04-16T09:20:14.862Z,12.53
2019-04-16T09:22:49.136Z,12.63
2019-04-16T09:25:35.546Z,12.38
2019-04-16T09:28:25.175Z,12.31
2019-04-16T09:31:23.610Z,12.45
2019-04-16T09:34:05.573Z,12.39
2019-04-16T09:36:34.627Z,12.32
2019-04-16T09:39:26.412Z,12.33
2019-04-16T09:41:56.898Z,12.54
2019-04-16T09:44:31.524Z,12.56
2019-04-16T09:47:00.465Z,12.66
2019-04-16T09:49:31.056Z,12.91
2019-04-16T09:52:03.935Z,13.12
2019-04-16T09:54:33.643Z,13.15
2019-04-16T09:57:04.147Z,13.06
2019-04-16T09:59:44.741Z,13.03
2019-04-16T10:02:20.159Z,13.06
2019-04-16T10:04:50.752Z,12.99
2019-04-16T10:07:21.465Z,13.07
2019-04-16T10:09:54.566Z,13.23
2019-04-16T10:12:25.380Z,13.42
2019-04-16T10:14:56.233Z,13.25
2019-04-16T10:17:26.705Z,13.27
2019-04-16T10:19:57.168Z,13.31
2019-04-16T10:22:27.918Z,13.53
2019-04-16T10:25:23.482Z,13.58
2019-04-16T10:28:05.664Z,13.52
2019-04-16T10:30:41.700Z,13.64
2019-04-16T10:33:12.274Z,13.76
2019-04-16T10:35:43.010Z,14.03
2019-04-16T10:38:41.735Z,13.89
2019-04-16T10:41:29.107Z,13.77
2019-04-16T10:44:14.295Z,13.87
2019-04-16T10:47:03.675Z,13.94
2019-04-16T10:49:52.798Z,13.98
2019-04-16T10:52:45.178Z,14.00
2019-04-16T10:55:33.086Z,14.18
2019-04-16T10:58:25.559Z,14.45
2019-04-16T11:01:04.157Z,14.53
2019-04-16T11:03:56.914Z,14.66
2019-04-16T11:06:39.631Z,14.56
2019-04-16T11:09:11.062Z,14.74
2019-04-16T11:11:41.812Z,14.60
2019-04-16T11:14:12.366Z,14.66
2019-04-16T11:16:44.766Z,14.76
2019-04-16T11:19:15.246Z,14.76
2019-04-16T11:21:45.795Z,14.84
2019-04-16T11:24:16.454Z,14.84
2019-04-16T11:26:46.880Z,15.03
2019-04-16T11:29:17.372Z,15.20
2019-04-16T11:31:47.972Z,15.10
2019-04-16T11:34:18.572Z,15.11
2019-04-16T11:36:49.091Z,15.18
2019-04-16T11:39:19.744Z,15.39
2019-04-16T11:41:50.301Z,15.51
2019-04-16T11:44:21.132Z,15.61
2019-04-16T11:46:51.635Z,15.84
2019-04-16T11:49:22.207Z,15.96
2019-04-16T11:51:54.032Z,16.14
2019-04-16T11:54:24.478Z,15.91
2019-04-16T11:56:55.470Z,15.45
2019-04-16T11:59:27.114Z,15.62
2019-04-16T12:02:16.496Z,15.69
2019-04-16T12:05:03.651Z,15.51
2019-04-16T12:07:48.395Z,15.58
2019-04-16T12:10:37.329Z,15.84
2019-04-16T12:13:25.276Z,16.18
2019-04-16T12:16:30.059Z,16.14
2019-04-16T12:19:25.174Z,15.99
2019-04-16T12:22:23.968Z,16.12
2019-04-16T12:25:03.261Z,16.06
2019-04-16T12:27:50.210Z,16.09
2019-04-16T12:30:55.137Z,16.27
2019-04-16T12:33:38.759Z,16.35
2019-04-16T12:36:34.372Z,16.39
2019-04-16T12:39:19.542Z,16.42
2019-04-16T12:42:07.415Z,16.73
2019-04-16T12:44:48.953Z,16.84
2019-04-16T12:47:35.714Z,16.62
2019-04-16T12:50:26.258Z,16.41
2019-04-16T12:53:24.699Z,16.58
2019-04-16T12:56:23.628Z,16.55
2019-04-16T12:59:15.278Z,16.47
2019-04-16T13:02:14.256Z,16.50
2019-04-16T13:04:56.711Z,16.63
2019-04-16T13:07:46.423Z,16.73
2019-04-16T13:10:21.138Z,16.78
2019-04-16T13:13:10.660Z,16.93
2019-04-16T13:15:58.608Z,16.93
2019-04-16T13:18:48.035Z,17.04
2019-04-16T13:21:24.920Z,17.16
2019-04-16T13:24:07.149Z,17.27
2019-04-16T13:26:47.217Z,17.39
2019-04-16T13:29:29.183Z,17.17
2019-04-16T13:31:56.032Z,17.10
2019-04-16T13:34:26.476Z,17.10
2019-04-16T13:36:59.633Z,17.19
2019-04-16T13:39:59.610Z,17.19
2019-04-16T13:42:30.341Z,17.19
2019-04-16T13:45:16.997Z,17.07
2019-04-16T13:47:54.565Z,17.23
2019-04-16T13:50:25.851Z,17.16
2019-04-16T13:53:05.475Z,17.17
2019-04-16T13:55:55.157Z,17.20
2019-04-16T13:58:39.694Z,17.22
2019-04-16T14:01:16.096Z,17.25
2019-04-16T14:03:46.671Z,17.44
2019-04-16T14:06:17.128Z,17.25
2019-04-16T14:08:47.656Z,17.29
2019-04-16T14:11:19.735Z,17.44
2019-04-16T14:13:50.486Z,17.42
2019-04-16T14:16:20.947Z,17.39
2019-04-16T14:18:51.467Z,17.31
2019-04-16T14:21:22.288Z,17.20
2019-04-16T14:23:53.168Z,17.16
2019-04-16T14:26:23.668Z,17.17
2019-04-16T14:28:56.821Z,17.14
2019-04-16T14:31:27.243Z,17.02
2019-04-16T14:34:16.199Z,16.90
2019-04-16T14:36:46.686Z,16.91
2019-04-16T14:39:24.927Z,16.79
2019-04-16T14:41:55.691Z,16.73
2019-04-16T14:44:28.053Z,16.61
2019-04-16T14:47:00.566Z,16.58
2019-04-16T14:49:30.685Z,16.51
2019-04-16T14:52:02.028Z,16.44
2019-04-16T14:54:38.730Z,16.34
2019-04-16T14:57:10.964Z,16.26
2019-04-16T14:59:52.784Z,16.27
2019-04-16T15:02:51.708Z,16.23
2019-04-16T15:05:39.000Z,16.18
2019-04-16T15:08:18.903Z,16.10
2019-04-16T15:11:14.380Z,16.04
2019-04-16T15:14:02.524Z,16.11
2019-04-16T15:16:58.351Z,16.08
2019-04-16T15:19:31.543Z,16.00
2019-04-16T15:22:20.536Z,16.01
2019-04-16T15:25:06.011Z,15.96
2019-04-16T15:27:44.021Z,15.88
2019-04-16T15:30:43.035Z,15.88
2019-04-16T15:33:25.855Z,15.89
2019-04-16T15:35:59.771Z,15.84
2019-04-16T15:38:50.133Z,15.75
2019-04-16T15:41:25.605Z,15.74
2019-04-16T15:44:09.635Z,15.80
2019-04-16T15:47:01.563Z,15.82
2019-04-16T15:49:55.625Z,15.74
2019-04-16T15:52:51.268Z,15.73
2019-04-16T15:55:35.379Z,15.61
2019-04-16T15:58:21.303Z,15.57
2019-04-16T16:01:09.509Z,15.54
2019-04-16T16:04:01.950Z,15.52
2019-04-16T16:06:32.816Z,15.47
2019-04-16T16:09:10.047Z,15.48
2019-04-16T16:11:51.927Z,15.48
2019-04-16T16:14:22.712Z,15.46
2019-04-16T16:16:53.779Z,15.44
2019-04-16T16:19:24.575Z,15.42
2019-04-16T16:21:55.015Z,15.43
2019-04-16T16:24:25.649Z,15.42
2019-04-16T16:26:56.831Z,15.38
2019-04-16T16:29:27.429Z,15.33
2019-04-16T16:31:57.875Z,15.26
2019-04-16T16:34:29.130Z,15.18
2019-04-16T16:36:59.574Z,15.13
2019-04-16T16:39:30.030Z,15.12
2019-04-16T16:42:00.890Z,15.07
2019-04-16T16:44:33.403Z,15.04
2019-04-16T16:47:22.820Z,15.02
2019-04-16T16:49:54.442Z,15.02
2019-04-16T16:52:38.142Z,14.96
2019-04-16T16:55:11.500Z,14.94
2019-04-16T16:57:54.165Z,14.85
2019-04-16T17:00:42.494Z,14.84
2019-04-16T17:03:31.914Z,14.80
2019-04-16T17:06:02.361Z,14.71
2019-04-16T17:08:32.880Z,14.66
2019-04-16T17:11:16.320Z,14.61
2019-04-16T17:13:35.877Z,14.52
2019-04-16T17:16:06.352Z,14.50
2019-04-16T17:18:37.028Z,14.42
2019-04-16T17:21:08.436Z,14.34
2019-04-16T17:23:38.883Z,14.36
2019-04-16T17:26:09.385Z,14.30
2019-04-16T17:28:40.273Z,14.31
2019-04-16T17:31:12.263Z,14.23
2019-04-16T17:33:42.753Z,14.20
2019-04-16T17:36:13.229Z,14.17
2019-04-16T17:38:43.688Z,14.10
2019-04-16T17:41:18.723Z,14.03
2019-04-16T17:44:03.842Z,13.93
2019-04-16T17:47:04.196Z,13.83
2019-04-16T17:50:02.494Z,13.72
2019-04-16T17:52:40.183Z,13.64
2019-04-16T17:55:28.723Z,13.59
2019-04-16T17:58:07.340Z,13.55
2019-04-16T18:01:02.304Z,13.44
2019-04-16T18:03:55.099Z,13.43
2019-04-16T18:06:41.780Z,13.32
2019-04-16T18:09:28.701Z,13.28
2019-04-16T18:12:17.006Z,13.27
2019-04-16T18:15:10.700Z,13.17
2019-04-16T18:18:01.041Z,13.08
2019-04-16T18:20:58.850Z,13.04
2019-04-16T18:24:01.153Z,12.93
2019-04-16T18:27:09.073Z,12.81
2019-04-16T18:30:16.870Z,12.77
2019-04-16T18:33:14.816Z,12.68
2019-04-16T18:36:03.265Z,12.68
2019-04-16T18:38:51.879Z,12.64
2019-04-16T18:41:39.864Z,12.60
2019-04-16T18:44:35.087Z,12.52
2019-04-16T18:47:24.459Z,12.51
2019-04-16T18:49:57.654Z,12.43
2019-04-16T18:52:28.504Z,12.37
2019-04-16T18:54:58.956Z,12.35
2019-04-16T18:57:29.447Z,12.30
2019-04-16T19:00:00.199Z,12.26
2019-04-16T19:02:30.992Z,12.25
2019-04-16T19:05:01.881Z,12.20
2019-04-16T19:07:34.411Z,12.19
2019-04-16T19:10:06.969Z,12.11
2019-04-16T19:12:37.419Z,12.05
2019-04-16T19:15:08.462Z,12.04
2019-04-16T19:17:38.980Z,11.96
2019-04-16T19:20:09.657Z,11.92
2019-04-16T19:22:40.498Z,11.92
2019-04-16T19:25:11.014Z,11.83
2019-04-16T19:27:41.494Z,11.81
2019-04-16T19:30:12.056Z,11.75
2019-04-16T19:32:42.560Z,11.68
2019-04-16T19:35:17.622Z,11.57
2019-04-16T19:37:46.463Z,11.59
2019-04-16T19:40:18.986Z,11.53
2019-04-16T19:42:49.246Z,11.43
2019-04-16T19:45:20.100Z,11.32
2019-04-16T19:47:50.620Z,11.20
2019-04-16T19:50:21.113Z,11.14
2019-04-16T19:52:52.054Z,11.11
2019-04-16T19:55:22.645Z,11.05
2019-04-16T19:57:56.951Z,10.96
2019-04-16T20:00:29.723Z,10.96
2019-04-16T20:03:00.593Z,10.95
2019-04-16T20:05:31.606Z,10.94
2019-04-16T20:08:02.503Z,10.91
2019-04-16T20:10:32.933Z,10.86
2019-04-16T20:13:03.391Z,10.81
2019-04-16T20:15:33.902Z,10.71
2019-04-16T20:18:06.840Z,10.69
2019-04-16T20:20:37.838Z,10.61
2019-04-16T20:23:10.727Z,10.56
2019-04-16T20:25:41.573Z,10.53
2019-04-16T20:28:15.390Z,10.49
2019-04-16T20:30:45.235Z,10.39
2019-04-16T20:33:15.719Z,10.31
2019-04-16T20:35:50.383Z,10.28
2019-04-16T20:38:18.731Z,10.24
2019-04-16T20:40:49.258Z,10.08
2019-04-16T20:43:19.714Z,10.06
2019-04-16T20:45:50.236Z,10.02
2019-04-16T20:48:21.072Z,10.02
2019-04-16T20:50:54.172Z,9.97
2019-04-16T20:53:24.873Z,10.01
2019-04-16T20:55:55.786Z,10.01
2019-04-16T20:58:30.695Z,10.04
2019-04-16T21:00:59.872Z,9.95
2019-04-16T21:03:31.187Z,9.93
2019-04-16T21:06:07.133Z,10.01
2019-04-16T21:08:35.102Z,10.05
2019-04-16T21:11:08.830Z,10.03
2019-04-16T21:13:38.082Z,9.99
2019-04-16T21:16:08.593Z,10.02
2019-04-16T21:18:39.062Z,10.03
2019-04-16T21:21:09.504Z,10.04
2019-04-16T21:23:40.211Z,9.98
2019-04-16T21:26:10.658Z,9.96
2019-04-16T21:28:50.284Z,9.95
2019-04-16T21:31:25.676Z,9.91
2019-04-16T21:34:01.885Z,9.93
2019-04-16T21:36:43.751Z,9.87
2019-04-16T21:39:31.524Z,9.86
2019-04-16T21:42:03.320Z,9.85
2019-04-16T21:44:34.191Z,9.74
2019-04-16T21:47:04.749Z,9.75
2019-04-16T21:49:38.808Z,9.74
2019-04-16T21:52:07.859Z,9.65
2019-04-16T21:54:39.431Z,9.59
2019-04-16T21:57:13.628Z,9.57
2019-04-16T21:59:43.175Z,9.57
2019-04-16T22:02:25.327Z,9.57
2019-04-16T22:04:56.207Z,9.59
2019-04-16T22:07:27.302Z,9.62
2019-04-16T22:09:57.774Z,9.61
2019-04-16T22:12:28.264Z,9.63
2019-04-16T22:14:58.974Z,9.64
2019-04-16T22:17:29.494Z,9.62
2019-04-16T22:20:03.699Z,9.64
2019-04-16T22:22:33.298Z,9.59
2019-04-16T22:25:04.006Z,9.61
2019-04-16T22:27:36.736Z,9.59
2019-04-16T22:30:07.437Z,9.54
2019-04-16T22:32:37.940Z,9.52
2019-04-16T22:35:08.480Z,9.54
2019-04-16T22:37:38.878Z,9.46
2019-04-16T22:40:23.500Z,9.47
2019-04-16T22:43:25.109Z,9.48
2019-04-16T22:46:05.765Z,9.42
2019-04-16T22:48:36.202Z,9.46
2019-04-16T22:51:10.165Z,9.41
2019-04-16T22:53:39.559Z,9.37
2019-04-16T22:56:10.002Z,9.32
2019-04-16T22:58:50.113Z,9.28
2019-04-16T23:01:22.034Z,9.25
2019-04-16T23:03:53.344Z,9.19
2019-04-16T23:06:24.690Z,9.13
2019-04-16T23:08:55.122Z,9.08
2019-04-16T23:11:25.954Z,8.98
2019-04-16T23:13:57.077Z,8.96
2019-04-16T23:16:27.930Z,8.92
2019-04-16T23:18:58.398Z,8.90
2019-04-16T23:21:28.912Z,8.88
2019-04-16T23:23:59.346Z,8.87
2019-04-16T23:26:32.995Z,8.82
2019-04-16T23:29:01.984Z,8.79
2019-04-16T23:31:32.428Z,8.77
2019-04-16T23:34:06.374Z,8.75
2019-04-16T23:36:36.162Z,8.77
2019-04-16T23:39:08.087Z,8.79
2019-04-16T23:41:38.881Z,8.80
2019-04-16T23:44:40.830Z,8.81
2019-04-16T23:47:31.224Z,8.82
2019-04-16T23:50:20.657Z,8.82
2019-04-16T23:52:59.255Z,8.78
2019-04-16T23:55:48.787Z,8.80
2019-04-16T23:58:29.457Z,8.77
